aviador You're here:

KBFD Decoded Metar

BRADFORD in PA, USA
Report Time2017-08-22 21:53:00
UTC Time2017-08-22 22:29:02
Flight Rules vfr VFR
Wind240° at 03 kt
W.Decomp.*RWY 23: 2.8 kt HW 1.1 kt RCW
RWY 32: 1.1 kt HW 2.8 kt LCW
W.Rank240° ranks 9
Current wind is below 240° avg. (6.5)
Visibility9999 m
Phenomena:N/A
Clouds:Scattered 034 Hf
Scattered 070 Hf
Overcast 095 Hf
Expected CloudBase > 400 ft AGL from Temp-Dew spread
Ceiling9,500 ft
Temp20°C (ISA +9)
Dew Point19°C (94% RH)
QNH1010 hPa
Density Alt3,599 ft
Elevation2,123 ft
Report Wrong Elevation
Raw Report
KBFD 222153Z AUTO 24003KT 10SM SCT034 SCT070 OVC095 20/19 A2984
RMK AO2 LTG DSNT E-S RAE52 TSE2059B31E46 SLP089 P0008
T02000194=

Extra information for KBFD:More info

Metar Taf Metar & Taf Last 4 Metars F.Rules Stats Wind Profile Meteogram Temp Stats Airport Information Weather charts Add Link Nearby VenuesMetar ALERT Operation Metar Decoded Social comments

AIRNAV info for KBFD